sensor_id;sensor_type;location;lat;lon;timestamp;P1;durP1;ratioP1;P2;durP2;ratioP2
13485;SDS011;6815;59.336;17.998;2023-04-26T00:01:45;17.27;;;9.77;;
13485;SDS011;6815;59.336;17.998;2023-04-26T00:04:10;14.63;;;8.93;;
13485;SDS011;6815;59.336;17.998;2023-04-26T00:06:36;19.77;;;9.90;;
13485;SDS011;6815;59.336;17.998;2023-04-26T00:09:02;17.83;;;9.90;;
13485;SDS011;6815;59.336;17.998;2023-04-26T00:11:28;14.73;;;9.30;;
13485;SDS011;6815;59.336;17.998;2023-04-26T00:13:54;16.57;;;9.80;;
13485;SDS011;6815;59.336;17.998;2023-04-26T00:16:19;16.70;;;10.07;;
13485;SDS011;6815;59.336;17.998;2023-04-26T00:18:45;15.47;;;9.57;;
13485;SDS011;6815;59.336;17.998;2023-04-26T00:21:10;18.60;;;10.77;;
13485;SDS011;6815;59.336;17.998;2023-04-26T00:23:36;18.63;;;10.47;;
13485;SDS011;6815;59.336;17.998;2023-04-26T00:26:02;17.27;;;10.37;;
13485;SDS011;6815;59.336;17.998;2023-04-26T00:28:28;20.77;;;11.17;;
13485;SDS011;6815;59.336;17.998;2023-04-26T00:30:53;19.57;;;11.47;;
13485;SDS011;6815;59.336;17.998;2023-04-26T00:33:22;20.87;;;11.10;;
13485;SDS011;6815;59.336;17.998;2023-04-26T00:35:48;23.37;;;11.70;;
13485;SDS011;6815;59.336;17.998;2023-04-26T00:38:13;21.57;;;11.30;;
13485;SDS011;6815;59.336;17.998;2023-04-26T00:40:39;23.53;;;12.27;;
13485;SDS011;6815;59.336;17.998;2023-04-26T00:43:04;22.83;;;11.80;;
13485;SDS011;6815;59.336;17.998;2023-04-26T00:45:30;23.13;;;11.47;;
13485;SDS011;6815;59.336;17.998;2023-04-26T00:47:58;23.87;;;12.03;;
13485;SDS011;6815;59.336;17.998;2023-04-26T00:50:25;21.77;;;11.77;;
13485;SDS011;6815;59.336;17.998;2023-04-26T00:52:51;25.07;;;11.97;;
13485;SDS011;6815;59.336;17.998;2023-04-26T00:55:17;27.33;;;13.10;;
13485;SDS011;6815;59.336;17.998;2023-04-26T00:57:45;28.53;;;13.77;;
13485;SDS011;6815;59.336;17.998;2023-04-26T01:00:11;29.73;;;14.13;;
13485;SDS011;6815;59.336;17.998;2023-04-26T01:02:37;23.73;;;12.50;;
13485;SDS011;6815;59.336;17.998;2023-04-26T01:05:03;25.73;;;12.60;;
13485;SDS011;6815;59.336;17.998;2023-04-26T01:07:29;26.97;;;12.80;;
13485;SDS011;6815;59.336;17.998;2023-04-26T01:09:56;26.63;;;13.67;;
13485;SDS011;6815;59.336;17.998;2023-04-26T01:12:23;26.53;;;13.13;;
13485;SDS011;6815;59.336;17.998;2023-04-26T01:14:49;23.87;;;13.20;;
13485;SDS011;6815;59.336;17.998;2023-04-26T01:17:16;25.87;;;13.67;;
13485;SDS011;6815;59.336;17.998;2023-04-26T01:19:50;26.13;;;13.13;;
13485;SDS011;6815;59.336;17.998;2023-04-26T01:22:16;23.57;;;12.70;;
13485;SDS011;6815;59.336;17.998;2023-04-26T01:24:42;26.40;;;13.07;;
13485;SDS011;6815;59.336;17.998;2023-04-26T01:27:14;27.53;;;13.20;;
13485;SDS011;6815;59.336;17.998;2023-04-26T01:29:40;25.70;;;14.03;;
13485;SDS011;6815;59.336;17.998;2023-04-26T01:32:06;28.87;;;13.37;;
13485;SDS011;6815;59.336;17.998;2023-04-26T01:34:31;26.43;;;13.67;;
13485;SDS011;6815;59.336;17.998;2023-04-26T01:36:58;33.47;;;14.77;;
13485;SDS011;6815;59.336;17.998;2023-04-26T01:39:25;27.43;;;14.37;;
13485;SDS011;6815;59.336;17.998;2023-04-26T01:41:50;32.67;;;14.70;;
13485;SDS011;6815;59.336;17.998;2023-04-26T01:44:16;26.30;;;13.60;;
13485;SDS011;6815;59.336;17.998;2023-04-26T01:46:41;32.60;;;15.37;;
13485;SDS011;6815;59.336;17.998;2023-04-26T01:49:07;27.17;;;14.00;;
13485;SDS011;6815;59.336;17.998;2023-04-26T01:51:32;27.03;;;13.17;;
13485;SDS011;6815;59.336;17.998;2023-04-26T01:53:58;28.30;;;13.87;;
13485;SDS011;6815;59.336;17.998;2023-04-26T01:56:24;27.80;;;13.90;;
13485;SDS011;6815;59.336;17.998;2023-04-26T01:58:49;27.90;;;15.10;;
13485;SDS011;6815;59.336;17.998;2023-04-26T02:01:15;28.63;;;15.13;;
13485;SDS011;6815;59.336;17.998;2023-04-26T02:03:41;28.03;;;13.17;;
13485;SDS011;6815;59.336;17.998;2023-04-26T02:06:06;31.20;;;14.53;;
13485;SDS011;6815;59.336;17.998;2023-04-26T02:08:32;26.37;;;14.63;;
13485;SDS011;6815;59.336;17.998;2023-04-26T02:10:58;24.23;;;13.07;;
13485;SDS011;6815;59.336;17.998;2023-04-26T02:13:23;25.03;;;13.73;;
13485;SDS011;6815;59.336;17.998;2023-04-26T02:15:49;29.77;;;14.60;;
13485;SDS011;6815;59.336;17.998;2023-04-26T02:18:15;24.67;;;13.30;;
13485;SDS011;6815;59.336;17.998;2023-04-26T02:20:41;24.67;;;12.93;;
13485;SDS011;6815;59.336;17.998;2023-04-26T02:23:08;21.73;;;12.50;;
13485;SDS011;6815;59.336;17.998;2023-04-26T02:25:34;24.23;;;13.50;;
13485;SDS011;6815;59.336;17.998;2023-04-26T02:28:00;28.53;;;13.57;;
13485;SDS011;6815;59.336;17.998;2023-04-26T02:30:26;24.73;;;13.17;;
13485;SDS011;6815;59.336;17.998;2023-04-26T02:32:55;23.10;;;13.33;;
13485;SDS011;6815;59.336;17.998;2023-04-26T02:35:21;25.77;;;13.00;;
13485;SDS011;6815;59.336;17.998;2023-04-26T02:37:46;25.00;;;13.30;;
13485;SDS011;6815;59.336;17.998;2023-04-26T02:40:19;24.33;;;13.53;;
13485;SDS011;6815;59.336;17.998;2023-04-26T02:42:46;24.77;;;13.70;;
13485;SDS011;6815;59.336;17.998;2023-04-26T02:45:12;25.97;;;13.23;;
13485;SDS011;6815;59.336;17.998;2023-04-26T02:47:37;23.27;;;12.90;;
13485;SDS011;6815;59.336;17.998;2023-04-26T02:50:04;20.50;;;12.30;;
13485;SDS011;6815;59.336;17.998;2023-04-26T02:52:31;22.77;;;13.37;;
13485;SDS011;6815;59.336;17.998;2023-04-26T02:54:57;21.07;;;12.03;;
13485;SDS011;6815;59.336;17.998;2023-04-26T02:57:22;21.07;;;12.13;;
13485;SDS011;6815;59.336;17.998;2023-04-26T02:59:48;21.57;;;12.90;;
13485;SDS011;6815;59.336;17.998;2023-04-26T03:02:13;22.40;;;13.23;;
13485;SDS011;6815;59.336;17.998;2023-04-26T03:04:39;21.17;;;12.30;;
13485;SDS011;6815;59.336;17.998;2023-04-26T03:07:06;17.03;;;11.47;;
13485;SDS011;6815;59.336;17.998;2023-04-26T03:09:31;20.23;;;12.40;;
13485;SDS011;6815;59.336;17.998;2023-04-26T03:11:58;21.60;;;11.60;;
13485;SDS011;6815;59.336;17.998;2023-04-26T03:14:25;20.10;;;12.60;;
13485;SDS011;6815;59.336;17.998;2023-04-26T03:16:51;17.53;;;11.40;;
13485;SDS011;6815;59.336;17.998;2023-04-26T03:19:17;18.87;;;11.80;;
13485;SDS011;6815;59.336;17.998;2023-04-26T03:21:42;20.33;;;12.30;;
13485;SDS011;6815;59.336;17.998;2023-04-26T03:24:08;18.30;;;11.07;;
13485;SDS011;6815;59.336;17.998;2023-04-26T03:26:33;20.27;;;11.37;;
13485;SDS011;6815;59.336;17.998;2023-04-26T03:28:59;17.53;;;10.73;;
13485;SDS011;6815;59.336;17.998;2023-04-26T03:31:24;16.77;;;11.03;;
13485;SDS011;6815;59.336;17.998;2023-04-26T03:33:50;21.90;;;11.60;;
13485;SDS011;6815;59.336;17.998;2023-04-26T03:36:15;15.97;;;11.00;;
13485;SDS011;6815;59.336;17.998;2023-04-26T03:38:41;17.03;;;10.67;;
13485;SDS011;6815;59.336;17.998;2023-04-26T03:41:07;15.23;;;10.80;;
13485;SDS011;6815;59.336;17.998;2023-04-26T03:43:32;19.73;;;10.30;;
13485;SDS011;6815;59.336;17.998;2023-04-26T03:45:59;16.27;;;10.57;;
13485;SDS011;6815;59.336;17.998;2023-04-26T03:48:24;14.20;;;9.53;;
13485;SDS011;6815;59.336;17.998;2023-04-26T03:50:51;15.47;;;9.37;;
13485;SDS011;6815;59.336;17.998;2023-04-26T03:53:16;13.97;;;9.33;;
13485;SDS011;6815;59.336;17.998;2023-04-26T03:55:42;17.30;;;9.57;;
13485;SDS011;6815;59.336;17.998;2023-04-26T03:58:07;16.67;;;10.13;;
13485;SDS011;6815;59.336;17.998;2023-04-26T04:00:33;16.20;;;9.17;;
13485;SDS011;6815;59.336;17.998;2023-04-26T04:03:01;16.53;;;9.73;;
13485;SDS011;6815;59.336;17.998;2023-04-26T04:05:27;14.97;;;8.77;;
13485;SDS011;6815;59.336;17.998;2023-04-26T04:07:52;20.40;;;9.20;;
13485;SDS011;6815;59.336;17.998;2023-04-26T04:10:18;17.37;;;8.40;;
13485;SDS011;6815;59.336;17.998;2023-04-26T04:12:43;15.47;;;8.83;;
13485;SDS011;6815;59.336;17.998;2023-04-26T04:15:09;13.67;;;8.17;;
13485;SDS011;6815;59.336;17.998;2023-04-26T04:17:34;15.30;;;8.30;;
13485;SDS011;6815;59.336;17.998;2023-04-26T04:20:00;14.47;;;7.67;;
13485;SDS011;6815;59.336;17.998;2023-04-26T04:22:28;14.67;;;8.70;;
13485;SDS011;6815;59.336;17.998;2023-04-26T04:24:54;14.30;;;7.97;;
13485;SDS011;6815;59.336;17.998;2023-04-26T04:27:20;12.40;;;7.27;;
13485;SDS011;6815;59.336;17.998;2023-04-26T04:29:45;14.37;;;6.80;;
13485;SDS011;6815;59.336;17.998;2023-04-26T04:32:11;11.67;;;6.50;;
13485;SDS011;6815;59.336;17.998;2023-04-26T04:34:39;10.43;;;6.47;;
13485;SDS011;6815;59.336;17.998;2023-04-26T04:37:05;8.30;;;5.77;;
13485;SDS011;6815;59.336;17.998;2023-04-26T04:39:31;11.60;;;6.17;;
13485;SDS011;6815;59.336;17.998;2023-04-26T04:41:57;8.20;;;5.53;;
13485;SDS011;6815;59.336;17.998;2023-04-26T04:44:24;7.43;;;5.17;;
13485;SDS011;6815;59.336;17.998;2023-04-26T04:46:51;8.13;;;5.27;;
13485;SDS011;6815;59.336;17.998;2023-04-26T04:49:16;9.17;;;5.10;;
13485;SDS011;6815;59.336;17.998;2023-04-26T04:51:43;7.80;;;4.47;;
13485;SDS011;6815;59.336;17.998;2023-04-26T04:54:11;8.10;;;3.80;;
13485;SDS011;6815;59.336;17.998;2023-04-26T04:56:40;6.17;;;3.87;;
13485;SDS011;6815;59.336;17.998;2023-04-26T04:59:06;6.03;;;3.70;;
13485;SDS011;6815;59.336;17.998;2023-04-26T05:01:32;5.80;;;3.07;;
13485;SDS011;6815;59.336;17.998;2023-04-26T05:03:59;5.50;;;3.03;;
13485;SDS011;6815;59.336;17.998;2023-04-26T05:06:25;5.50;;;2.83;;
13485;SDS011;6815;59.336;17.998;2023-04-26T05:08:52;4.27;;;3.00;;
13485;SDS011;6815;59.336;17.998;2023-04-26T05:11:18;4.40;;;2.83;;
13485;SDS011;6815;59.336;17.998;2023-04-26T05:13:44;7.37;;;2.93;;
13485;SDS011;6815;59.336;17.998;2023-04-26T05:16:10;5.97;;;2.77;;
13485;SDS011;6815;59.336;17.998;2023-04-26T05:18:36;4.40;;;2.53;;
13485;SDS011;6815;59.336;17.998;2023-04-26T05:21:01;6.13;;;2.70;;
13485;SDS011;6815;59.336;17.998;2023-04-26T05:23:26;5.10;;;2.97;;
13485;SDS011;6815;59.336;17.998;2023-04-26T05:25:52;3.33;;;2.70;;
13485;SDS011;6815;59.336;17.998;2023-04-26T05:28:17;4.70;;;2.40;;
13485;SDS011;6815;59.336;17.998;2023-04-26T05:30:43;6.10;;;2.80;;
13485;SDS011;6815;59.336;17.998;2023-04-26T05:33:10;3.73;;;2.80;;
13485;SDS011;6815;59.336;17.998;2023-04-26T05:35:36;2.77;;;2.07;;
13485;SDS011;6815;59.336;17.998;2023-04-26T05:38:01;4.80;;;2.20;;
13485;SDS011;6815;59.336;17.998;2023-04-26T05:40:27;2.20;;;2.00;;
13485;SDS011;6815;59.336;17.998;2023-04-26T05:42:53;2.60;;;1.80;;
13485;SDS011;6815;59.336;17.998;2023-04-26T05:45:18;3.20;;;2.20;;
13485;SDS011;6815;59.336;17.998;2023-04-26T05:47:44;2.50;;;1.90;;
13485;SDS011;6815;59.336;17.998;2023-04-26T05:50:11;3.57;;;2.00;;
13485;SDS011;6815;59.336;17.998;2023-04-26T05:52:37;2.20;;;1.70;;
13485;SDS011;6815;59.336;17.998;2023-04-26T05:55:02;3.10;;;1.77;;
13485;SDS011;6815;59.336;17.998;2023-04-26T05:57:28;4.00;;;1.93;;
13485;SDS011;6815;59.336;17.998;2023-04-26T05:59:54;3.33;;;1.53;;
13485;SDS011;6815;59.336;17.998;2023-04-26T06:02:20;3.53;;;1.60;;
13485;SDS011;6815;59.336;17.998;2023-04-26T06:04:45;2.40;;;1.13;;
13485;SDS011;6815;59.336;17.998;2023-04-26T06:07:12;1.50;;;1.40;;
13485;SDS011;6815;59.336;17.998;2023-04-26T06:09:37;1.53;;;1.37;;
13485;SDS011;6815;59.336;17.998;2023-04-26T06:12:03;1.77;;;1.20;;
13485;SDS011;6815;59.336;17.998;2023-04-26T06:14:29;1.70;;;1.17;;
13485;SDS011;6815;59.336;17.998;2023-04-26T06:16:55;3.03;;;1.20;;
13485;SDS011;6815;59.336;17.998;2023-04-26T06:19:20;1.20;;;1.10;;
13485;SDS011;6815;59.336;17.998;2023-04-26T06:21:46;1.27;;;1.07;;
13485;SDS011;6815;59.336;17.998;2023-04-26T06:24:12;1.30;;;1.00;;
13485;SDS011;6815;59.336;17.998;2023-04-26T06:26:38;2.03;;;1.10;;
13485;SDS011;6815;59.336;17.998;2023-04-26T06:29:04;1.57;;;1.00;;
13485;SDS011;6815;59.336;17.998;2023-04-26T06:31:29;1.13;;;1.03;;
13485;SDS011;6815;59.336;17.998;2023-04-26T06:33:55;1.20;;;1.10;;
13485;SDS011;6815;59.336;17.998;2023-04-26T06:36:21;4.30;;;2.30;;
13485;SDS011;6815;59.336;17.998;2023-04-26T06:38:46;2.47;;;1.30;;
13485;SDS011;6815;59.336;17.998;2023-04-26T06:41:12;1.27;;;0.90;;
13485;SDS011;6815;59.336;17.998;2023-04-26T06:43:38;1.40;;;0.73;;
13485;SDS011;6815;59.336;17.998;2023-04-26T06:46:03;0.50;;;0.50;;
13485;SDS011;6815;59.336;17.998;2023-04-26T06:48:29;3.10;;;1.07;;
13485;SDS011;6815;59.336;17.998;2023-04-26T06:50:54;3.20;;;0.70;;
13485;SDS011;6815;59.336;17.998;2023-04-26T06:53:20;0.70;;;0.60;;
13485;SDS011;6815;59.336;17.998;2023-04-26T06:55:46;1.57;;;0.77;;
13485;SDS011;6815;59.336;17.998;2023-04-26T06:58:11;0.50;;;0.50;;
13485;SDS011;6815;59.336;17.998;2023-04-26T07:00:36;0.80;;;0.40;;
13485;SDS011;6815;59.336;17.998;2023-04-26T07:03:02;0.40;;;0.40;;
13485;SDS011;6815;59.336;17.998;2023-04-26T07:05:27;1.00;;;0.40;;
13485;SDS011;6815;59.336;17.998;2023-04-26T07:07:53;0.87;;;0.30;;
13485;SDS011;6815;59.336;17.998;2023-04-26T07:10:18;0.33;;;0.33;;
13485;SDS011;6815;59.336;17.998;2023-04-26T07:12:45;0.37;;;0.33;;
13485;SDS011;6815;59.336;17.998;2023-04-26T07:15:10;0.20;;;0.20;;
13485;SDS011;6815;59.336;17.998;2023-04-26T07:17:36;0.23;;;0.23;;
13485;SDS011;6815;59.336;17.998;2023-04-26T07:20:01;0.30;;;0.30;;
13485;SDS011;6815;59.336;17.998;2023-04-26T07:22:28;0.20;;;0.20;;
13485;SDS011;6815;59.336;17.998;2023-04-26T07:24:53;0.30;;;0.30;;
13485;SDS011;6815;59.336;17.998;2023-04-26T07:27:19;0.20;;;0.20;;
13485;SDS011;6815;59.336;17.998;2023-04-26T07:29:44;0.40;;;0.30;;
13485;SDS011;6815;59.336;17.998;2023-04-26T07:32:10;0.30;;;0.30;;
13485;SDS011;6815;59.336;17.998;2023-04-26T07:34:35;0.37;;;0.30;;
13485;SDS011;6815;59.336;17.998;2023-04-26T07:37:01;0.93;;;0.40;;
13485;SDS011;6815;59.336;17.998;2023-04-26T07:39:26;0.37;;;0.23;;
13485;SDS011;6815;59.336;17.998;2023-04-26T07:41:51;0.30;;;0.30;;
13485;SDS011;6815;59.336;17.998;2023-04-26T07:44:17;0.30;;;0.30;;
13485;SDS011;6815;59.336;17.998;2023-04-26T07:46:42;0.40;;;0.40;;
13485;SDS011;6815;59.336;17.998;2023-04-26T07:49:08;0.30;;;0.30;;
13485;SDS011;6815;59.336;17.998;2023-04-26T07:51:35;0.40;;;0.40;;
13485;SDS011;6815;59.336;17.998;2023-04-26T07:54:01;0.40;;;0.30;;
13485;SDS011;6815;59.336;17.998;2023-04-26T07:56:26;0.80;;;0.50;;
13485;SDS011;6815;59.336;17.998;2023-04-26T07:58:52;0.40;;;0.40;;
13485;SDS011;6815;59.336;17.998;2023-04-26T08:01:17;0.73;;;0.50;;
13485;SDS011;6815;59.336;17.998;2023-04-26T08:03:43;1.03;;;0.40;;
13485;SDS011;6815;59.336;17.998;2023-04-26T08:06:08;0.47;;;0.40;;
13485;SDS011;6815;59.336;17.998;2023-04-26T08:08:34;1.40;;;0.57;;
13485;SDS011;6815;59.336;17.998;2023-04-26T08:11:06;1.17;;;0.60;;
13485;SDS011;6815;59.336;17.998;2023-04-26T08:13:32;0.80;;;0.40;;
13485;SDS011;6815;59.336;17.998;2023-04-26T08:15:57;0.70;;;0.60;;
13485;SDS011;6815;59.336;17.998;2023-04-26T08:18:22;0.60;;;0.40;;
13485;SDS011;6815;59.336;17.998;2023-04-26T08:20:48;2.83;;;1.10;;
13485;SDS011;6815;59.336;17.998;2023-04-26T08:23:13;2.30;;;1.10;;
13485;SDS011;6815;59.336;17.998;2023-04-26T08:25:39;6.33;;;1.73;;
13485;SDS011;6815;59.336;17.998;2023-04-26T08:28:04;3.07;;;0.93;;
13485;SDS011;6815;59.336;17.998;2023-04-26T08:30:32;0.40;;;0.40;;
13485;SDS011;6815;59.336;17.998;2023-04-26T08:32:58;0.43;;;0.20;;
13485;SDS011;6815;59.336;17.998;2023-04-26T08:35:23;0.30;;;0.30;;
13485;SDS011;6815;59.336;17.998;2023-04-26T08:37:49;1.40;;;0.50;;
13485;SDS011;6815;59.336;17.998;2023-04-26T08:40:15;2.10;;;0.50;;
13485;SDS011;6815;59.336;17.998;2023-04-26T08:42:47;0.93;;;0.30;;
13485;SDS011;6815;59.336;17.998;2023-04-26T08:45:13;0.37;;;0.37;;
13485;SDS011;6815;59.336;17.998;2023-04-26T08:47:44;0.60;;;0.30;;
13485;SDS011;6815;59.336;17.998;2023-04-26T08:50:13;0.40;;;0.20;;
13485;SDS011;6815;59.336;17.998;2023-04-26T08:52:40;0.30;;;0.30;;
13485;SDS011;6815;59.336;17.998;2023-04-26T08:55:07;0.40;;;0.40;;
13485;SDS011;6815;59.336;17.998;2023-04-26T08:57:34;0.40;;;0.30;;
13485;SDS011;6815;59.336;17.998;2023-04-26T09:00:03;0.50;;;0.30;;
13485;SDS011;6815;59.336;17.998;2023-04-26T09:02:36;1.33;;;0.30;;
13485;SDS011;6815;59.336;17.998;2023-04-26T09:05:03;3.07;;;0.53;;
13485;SDS011;6815;59.336;17.998;2023-04-26T09:07:32;1.33;;;0.70;;
13485;SDS011;6815;59.336;17.998;2023-04-26T09:10:03;1.20;;;0.40;;
13485;SDS011;6815;59.336;17.998;2023-04-26T09:12:30;0.30;;;0.30;;
13485;SDS011;6815;59.336;17.998;2023-04-26T09:14:56;1.03;;;0.50;;
13485;SDS011;6815;59.336;17.998;2023-04-26T09:17:28;0.40;;;0.40;;
13485;SDS011;6815;59.336;17.998;2023-04-26T09:19:55;0.50;;;0.40;;
13485;SDS011;6815;59.336;17.998;2023-04-26T09:22:29;2.13;;;0.40;;
13485;SDS011;6815;59.336;17.998;2023-04-26T09:24:59;0.40;;;0.40;;
13485;SDS011;6815;59.336;17.998;2023-04-26T09:27:38;2.97;;;0.50;;
13485;SDS011;6815;59.336;17.998;2023-04-26T09:32:50;2.83;;;0.70;;
13485;SDS011;6815;59.336;17.998;2023-04-26T09:35:34;11.63;;;1.10;;
13485;SDS011;6815;59.336;17.998;2023-04-26T09:40:32;2.57;;;0.53;;
13485;SDS011;6815;59.336;17.998;2023-04-26T09:43:06;1.73;;;0.50;;
13485;SDS011;6815;59.336;17.998;2023-04-26T09:45:50;0.40;;;0.40;;
13485;SDS011;6815;59.336;17.998;2023-04-26T09:48:24;0.47;;;0.40;;
13485;SDS011;6815;59.336;17.998;2023-04-26T09:50:54;1.43;;;0.60;;
13485;SDS011;6815;59.336;17.998;2023-04-26T09:53:23;0.70;;;0.50;;
13485;SDS011;6815;59.336;17.998;2023-04-26T09:56:11;1.63;;;0.73;;
13485;SDS011;6815;59.336;17.998;2023-04-26T10:01:17;0.40;;;0.40;;
13485;SDS011;6815;59.336;17.998;2023-04-26T10:03:43;0.40;;;0.40;;
13485;SDS011;6815;59.336;17.998;2023-04-26T10:06:14;0.30;;;0.30;;
13485;SDS011;6815;59.336;17.998;2023-04-26T10:08:40;5.53;;;1.00;;
13485;SDS011;6815;59.336;17.998;2023-04-26T10:11:07;1.27;;;0.60;;
13485;SDS011;6815;59.336;17.998;2023-04-26T10:13:34;0.87;;;0.40;;
13485;SDS011;6815;59.336;17.998;2023-04-26T10:16:00;1.13;;;0.50;;
13485;SDS011;6815;59.336;17.998;2023-04-26T10:18:26;6.07;;;0.50;;
13485;SDS011;6815;59.336;17.998;2023-04-26T10:20:55;2.17;;;0.50;;
13485;SDS011;6815;59.336;17.998;2023-04-26T10:23:23;1.13;;;0.50;;
13485;SDS011;6815;59.336;17.998;2023-04-26T10:25:50;3.73;;;0.80;;
13485;SDS011;6815;59.336;17.998;2023-04-26T10:28:16;8.80;;;1.77;;
13485;SDS011;6815;59.336;17.998;2023-04-26T10:30:55;11.77;;;1.00;;
13485;SDS011;6815;59.336;17.998;2023-04-26T10:33:26;1.57;;;0.50;;
13485;SDS011;6815;59.336;17.998;2023-04-26T10:35:58;0.40;;;0.40;;
13485;SDS011;6815;59.336;17.998;2023-04-26T10:38:29;0.67;;;0.40;;
13485;SDS011;6815;59.336;17.998;2023-04-26T10:47:02;1.80;;;0.50;;
13485;SDS011;6815;59.336;17.998;2023-04-26T10:49:42;2.93;;;0.80;;
13485;SDS011;6815;59.336;17.998;2023-04-26T10:52:10;5.10;;;1.20;;
13485;SDS011;6815;59.336;17.998;2023-04-26T10:54:46;3.43;;;0.60;;
13485;SDS011;6815;59.336;17.998;2023-04-26T10:57:13;1.97;;;0.60;;
13485;SDS011;6815;59.336;17.998;2023-04-26T10:59:39;0.73;;;0.50;;
13485;SDS011;6815;59.336;17.998;2023-04-26T11:02:09;2.60;;;0.50;;
13485;SDS011;6815;59.336;17.998;2023-04-26T11:04:53;0.97;;;0.60;;
13485;SDS011;6815;59.336;17.998;2023-04-26T11:07:37;0.53;;;0.53;;
13485;SDS011;6815;59.336;17.998;2023-04-26T11:10:06;14.30;;;1.67;;
13485;SDS011;6815;59.336;17.998;2023-04-26T11:12:35;4.57;;;0.80;;
13485;SDS011;6815;59.336;17.998;2023-04-26T11:15:00;2.27;;;0.90;;
13485;SDS011;6815;59.336;17.998;2023-04-26T11:17:26;5.13;;;1.10;;
13485;SDS011;6815;59.336;17.998;2023-04-26T11:19:51;2.37;;;0.50;;
13485;SDS011;6815;59.336;17.998;2023-04-26T11:22:20;0.90;;;0.50;;
13485;SDS011;6815;59.336;17.998;2023-04-26T11:24:46;0.50;;;0.50;;
13485;SDS011;6815;59.336;17.998;2023-04-26T11:27:11;2.63;;;0.60;;
13485;SDS011;6815;59.336;17.998;2023-04-26T11:29:37;1.80;;;0.60;;
13485;SDS011;6815;59.336;17.998;2023-04-26T11:32:03;0.63;;;0.50;;
13485;SDS011;6815;59.336;17.998;2023-04-26T11:34:36;1.07;;;0.70;;
13485;SDS011;6815;59.336;17.998;2023-04-26T11:37:05;1.37;;;0.40;;
13485;SDS011;6815;59.336;17.998;2023-04-26T11:39:36;1.73;;;0.40;;
13485;SDS011;6815;59.336;17.998;2023-04-26T11:42:05;0.63;;;0.50;;
13485;SDS011;6815;59.336;17.998;2023-04-26T11:44:31;0.50;;;0.50;;
13485;SDS011;6815;59.336;17.998;2023-04-26T11:46:57;0.50;;;0.50;;
13485;SDS011;6815;59.336;17.998;2023-04-26T11:49:24;0.50;;;0.50;;
13485;SDS011;6815;59.336;17.998;2023-04-26T11:51:50;0.50;;;0.47;;
13485;SDS011;6815;59.336;17.998;2023-04-26T11:54:28;1.27;;;0.67;;
13485;SDS011;6815;59.336;17.998;2023-04-26T11:56:54;1.53;;;0.50;;
13485;SDS011;6815;59.336;17.998;2023-04-26T11:59:27;1.00;;;0.60;;
13485;SDS011;6815;59.336;17.998;2023-04-26T12:01:56;0.47;;;0.40;;
13485;SDS011;6815;59.336;17.998;2023-04-26T12:04:29;1.00;;;0.80;;
13485;SDS011;6815;59.336;17.998;2023-04-26T12:06:55;1.40;;;0.50;;
13485;SDS011;6815;59.336;17.998;2023-04-26T12:09:27;0.50;;;0.50;;
13485;SDS011;6815;59.336;17.998;2023-04-26T12:11:59;2.93;;;0.60;;
13485;SDS011;6815;59.336;17.998;2023-04-26T12:14:32;7.87;;;1.00;;
13485;SDS011;6815;59.336;17.998;2023-04-26T12:17:04;0.93;;;0.60;;
13485;SDS011;6815;59.336;17.998;2023-04-26T12:19:31;1.50;;;0.50;;
13485;SDS011;6815;59.336;17.998;2023-04-26T12:22:06;0.90;;;0.50;;
13485;SDS011;6815;59.336;17.998;2023-04-26T12:24:32;3.13;;;0.90;;
13485;SDS011;6815;59.336;17.998;2023-04-26T12:27:00;0.50;;;0.50;;
13485;SDS011;6815;59.336;17.998;2023-04-26T12:29:28;2.67;;;0.60;;
13485;SDS011;6815;59.336;17.998;2023-04-26T12:31:55;0.70;;;0.60;;
13485;SDS011;6815;59.336;17.998;2023-04-26T12:34:21;0.90;;;0.60;;
13485;SDS011;6815;59.336;17.998;2023-04-26T12:36:46;0.50;;;0.50;;
13485;SDS011;6815;59.336;17.998;2023-04-26T12:39:12;0.70;;;0.57;;
13485;SDS011;6815;59.336;17.998;2023-04-26T12:41:39;0.80;;;0.57;;
13485;SDS011;6815;59.336;17.998;2023-04-26T12:44:06;0.57;;;0.57;;
13485;SDS011;6815;59.336;17.998;2023-04-26T12:46:32;1.07;;;0.70;;
13485;SDS011;6815;59.336;17.998;2023-04-26T12:48:58;0.70;;;0.70;;
13485;SDS011;6815;59.336;17.998;2023-04-26T12:51:24;2.23;;;0.67;;
13485;SDS011;6815;59.336;17.998;2023-04-26T12:53:49;1.00;;;0.80;;
13485;SDS011;6815;59.336;17.998;2023-04-26T12:56:15;0.97;;;0.70;;
13485;SDS011;6815;59.336;17.998;2023-04-26T12:58:41;4.80;;;0.80;;
13485;SDS011;6815;59.336;17.998;2023-04-26T13:01:07;1.67;;;0.70;;
13485;SDS011;6815;59.336;17.998;2023-04-26T13:03:34;2.27;;;0.77;;
13485;SDS011;6815;59.336;17.998;2023-04-26T13:06:00;3.33;;;1.23;;
13485;SDS011;6815;59.336;17.998;2023-04-26T13:08:25;0.70;;;0.70;;
13485;SDS011;6815;59.336;17.998;2023-04-26T13:10:51;0.53;;;0.53;;
13485;SDS011;6815;59.336;17.998;2023-04-26T13:13:16;1.37;;;0.67;;
13485;SDS011;6815;59.336;17.998;2023-04-26T13:15:42;0.60;;;0.60;;
13485;SDS011;6815;59.336;17.998;2023-04-26T13:18:07;0.50;;;0.50;;
13485;SDS011;6815;59.336;17.998;2023-04-26T13:20:33;0.70;;;0.70;;
13485;SDS011;6815;59.336;17.998;2023-04-26T13:22:58;0.60;;;0.60;;
13485;SDS011;6815;59.336;17.998;2023-04-26T13:25:24;0.60;;;0.60;;
13485;SDS011;6815;59.336;17.998;2023-04-26T13:27:49;0.60;;;0.60;;
13485;SDS011;6815;59.336;17.998;2023-04-26T13:30:17;0.87;;;0.60;;
13485;SDS011;6815;59.336;17.998;2023-04-26T13:32:43;1.23;;;0.63;;
13485;SDS011;6815;59.336;17.998;2023-04-26T13:35:08;2.30;;;0.73;;
13485;SDS011;6815;59.336;17.998;2023-04-26T13:37:35;2.00;;;0.70;;
13485;SDS011;6815;59.336;17.998;2023-04-26T13:40:01;0.70;;;0.60;;
13485;SDS011;6815;59.336;17.998;2023-04-26T13:42:28;0.73;;;0.73;;
13485;SDS011;6815;59.336;17.998;2023-04-26T13:44:53;0.60;;;0.60;;
13485;SDS011;6815;59.336;17.998;2023-04-26T13:47:19;1.10;;;0.70;;
13485;SDS011;6815;59.336;17.998;2023-04-26T13:49:44;0.63;;;0.63;;
13485;SDS011;6815;59.336;17.998;2023-04-26T13:52:10;0.70;;;0.67;;
13485;SDS011;6815;59.336;17.998;2023-04-26T13:54:36;0.50;;;0.50;;
13485;SDS011;6815;59.336;17.998;2023-04-26T13:57:02;1.37;;;0.90;;
13485;SDS011;6815;59.336;17.998;2023-04-26T13:59:28;2.20;;;0.70;;
13485;SDS011;6815;59.336;17.998;2023-04-26T14:01:53;0.60;;;0.60;;
13485;SDS011;6815;59.336;17.998;2023-04-26T14:04:20;0.70;;;0.70;;
13485;SDS011;6815;59.336;17.998;2023-04-26T14:06:46;1.47;;;0.63;;
13485;SDS011;6815;59.336;17.998;2023-04-26T14:09:11;2.03;;;0.80;;
13485;SDS011;6815;59.336;17.998;2023-04-26T14:11:37;1.77;;;0.70;;
13485;SDS011;6815;59.336;17.998;2023-04-26T14:14:02;1.73;;;0.80;;
13485;SDS011;6815;59.336;17.998;2023-04-26T14:16:28;1.57;;;0.90;;
13485;SDS011;6815;59.336;17.998;2023-04-26T14:18:53;1.70;;;0.80;;
13485;SDS011;6815;59.336;17.998;2023-04-26T14:21:19;2.20;;;0.80;;
13485;SDS011;6815;59.336;17.998;2023-04-26T14:23:45;2.10;;;0.73;;
13485;SDS011;6815;59.336;17.998;2023-04-26T14:26:10;1.63;;;0.77;;
13485;SDS011;6815;59.336;17.998;2023-04-26T14:28:36;1.53;;;0.70;;
13485;SDS011;6815;59.336;17.998;2023-04-26T14:31:02;0.70;;;0.70;;
13485;SDS011;6815;59.336;17.998;2023-04-26T14:33:27;0.57;;;0.57;;
13485;SDS011;6815;59.336;17.998;2023-04-26T14:35:53;3.70;;;0.80;;
13485;SDS011;6815;59.336;17.998;2023-04-26T14:38:19;0.60;;;0.60;;
13485;SDS011;6815;59.336;17.998;2023-04-26T14:40:45;1.10;;;0.73;;
13485;SDS011;6815;59.336;17.998;2023-04-26T14:43:10;2.33;;;0.70;;
13485;SDS011;6815;59.336;17.998;2023-04-26T14:45:36;4.87;;;0.90;;
13485;SDS011;6815;59.336;17.998;2023-04-26T14:48:01;0.70;;;0.70;;
13485;SDS011;6815;59.336;17.998;2023-04-26T14:50:27;1.10;;;0.80;;
13485;SDS011;6815;59.336;17.998;2023-04-26T14:52:54;0.80;;;0.80;;